Time;durP1;ratioP1;P1;durP2;ratioP2;P2;SDS_P1;SDS_P2;PMS_P1;PMS_P2;Temp;Humidity;BMP_temperature;BMP_pressure;BME280_temperature;BME280_humidity;BME280_pressure;Samples;Min_cycle;Max_cycle;Signal;HPM_P1;HPM_P2
2023/05/27 00:02:00;;;;;;;11.77;3.70;;;15.00;46.10;;;;;;4977406;28;20122;-88
2023/05/27 00:04:27;;;;;;;13.65;4.70;;;15.00;46.10;;;;;;4978849;28;20058;-87
2023/05/27 00:06:54;;;;;;;9.65;3.22;;;15.00;46.10;;;;;;4977123;28;20502;-88
2023/05/27 00:09:22;;;;;;;11.90;3.53;;;15.00;46.10;;;;;;4978987;28;20057;-87
2023/05/27 00:11:49;;;;;;;10.77;3.72;;;14.90;46.20;;;;;;4980075;28;20061;-88
2023/05/27 00:14:20;;;;;;;12.88;4.20;;;14.90;46.20;;;;;;4978874;28;20490;-90
2023/05/27 00:16:49;;;;;;;14.45;3.72;;;14.90;46.20;;;;;;4984042;28;20054;-87
2023/05/27 00:19:17;;;;;;;12.48;3.67;;;14.80;46.20;;;;;;4984996;28;20078;-88
2023/05/27 00:21:45;;;;;;;13.02;4.28;;;14.80;46.30;;;;;;4984266;28;20058;-88
2023/05/27 00:24:12;;;;;;;11.48;3.60;;;14.80;46.50;;;;;;4985233;28;20058;-87
2023/05/27 00:26:39;;;;;;;13.82;4.13;;;14.80;46.40;;;;;;4982516;28;20058;-88
2023/05/27 00:29:07;;;;;;;17.55;4.88;;;14.80;46.50;;;;;;4981779;28;20050;-89
2023/05/27 00:31:35;;;;;;;13.73;3.95;;;14.70;46.60;;;;;;4984782;28;20050;-88
2023/05/27 00:34:03;;;;;;;17.02;4.03;;;14.70;46.60;;;;;;4982673;28;20047;-88
2023/05/27 00:36:31;;;;;;;9.50;3.83;;;14.70;46.60;;;;;;4983824;28;20054;-87
2023/05/27 00:38:59;;;;;;;12.43;3.83;;;14.70;46.70;;;;;;4981217;28;20487;-87
2023/05/27 00:41:27;;;;;;;11.07;3.53;;;14.60;46.60;;;;;;4984850;28;20058;-88
2023/05/27 00:43:56;;;;;;;13.98;4.53;;;14.60;46.70;;;;;;4984903;28;20050;-87
2023/05/27 00:46:24;;;;;;;11.05;3.65;;;14.60;46.70;;;;;;4984556;28;20061;-89
2023/05/27 00:48:52;;;;;;;13.00;4.60;;;14.50;46.70;;;;;;4982671;28;20498;-87
2023/05/27 00:51:20;;;;;;;16.33;4.65;;;14.50;46.80;;;;;;4986143;28;20612;-88
2023/05/27 00:53:48;;;;;;;12.98;4.30;;;14.50;46.90;;;;;;4990805;28;20046;-87
2023/05/27 00:56:16;;;;;;;13.05;4.63;;;14.50;46.90;;;;;;4986251;28;20054;-88
2023/05/27 00:58:44;;;;;;;19.25;4.20;;;14.50;47.10;;;;;;4984409;28;20050;-87
2023/05/27 01:01:11;;;;;;;14.88;4.50;;;14.40;47.20;;;;;;4984881;28;20069;-86
2023/05/27 01:03:41;;;;;;;11.43;3.88;;;14.30;47.30;;;;;;5005352;23;20076;-38
2023/05/27 01:06:18;;;;;;;12.80;4.00;;;14.40;47.30;;;;;;4986760;28;20058;-41
2023/05/27 01:08:55;;;;;;;17.65;4.10;;;14.30;47.40;;;;;;4985465;28;20054;-38
2023/05/27 01:11:28;;;;;;;17.23;5.03;;;14.20;47.40;;;;;;4983797;28;20061;-39
2023/05/27 01:14:01;;;;;;;16.63;5.40;;;14.20;47.60;;;;;;4986831;28;20065;-39
2023/05/27 01:16:30;;;;;;;21.48;5.60;;;14.20;47.80;;;;;;4985686;28;20051;-40
2023/05/27 01:19:02;;;;;;;14.32;4.63;;;14.20;47.90;;;;;;4982665;28;20050;-38
2023/05/27 01:21:36;;;;;;;11.38;4.03;;;14.10;47.90;;;;;;4983656;28;20629;-39
2023/05/27 01:24:06;;;;;;;12.52;4.90;;;14.10;47.80;;;;;;4986530;28;20058;-38
2023/05/27 01:26:33;;;;;;;14.10;4.78;;;14.00;48.00;;;;;;4983200;28;20050;-38
2023/05/27 01:29:00;;;;;;;11.70;4.68;;;14.00;48.00;;;;;;4983819;28;20058;-40
2023/05/27 01:31:36;;;;;;;18.10;5.43;;;14.00;48.10;;;;;;4979754;28;20417;-38
2023/05/27 01:34:08;;;;;;;17.40;5.90;;;13.90;48.40;;;;;;4983035;28;20058;-39
2023/05/27 01:36:41;;;;;;;14.85;5.80;;;13.90;48.50;;;;;;4981860;28;20521;-44
2023/05/27 01:39:12;;;;;;;15.37;4.90;;;13.80;48.50;;;;;;4981865;28;20050;-39
2023/05/27 01:41:42;;;;;;;12.40;4.50;;;13.80;48.50;;;;;;4983383;28;20067;-40
2023/05/27 01:44:10;;;;;;;15.85;5.45;;;13.70;48.50;;;;;;4982229;28;20513;-39
2023/05/27 01:46:38;;;;;;;10.60;4.80;;;13.70;48.50;;;;;;4978160;28;20062;-39
2023/05/27 01:49:05;;;;;;;16.58;5.03;;;13.70;48.60;;;;;;4982771;28;20057;-39
2023/05/27 01:51:32;;;;;;;12.65;5.10;;;13.70;48.80;;;;;;4981469;28;20051;-42
2023/05/27 01:53:59;;;;;;;15.40;4.95;;;13.60;48.80;;;;;;4983091;28;20490;-39
2023/05/27 01:56:29;;;;;;;13.95;4.85;;;13.60;48.80;;;;;;4980862;28;20572;-38
2023/05/27 01:58:56;;;;;;;19.83;6.13;;;13.60;49.00;;;;;;4982940;28;20057;-38
2023/05/27 02:01:23;;;;;;;18.15;4.97;;;13.50;49.10;;;;;;4981637;28;20054;-38
2023/05/27 02:03:51;;;;;;;13.10;4.50;;;13.50;49.20;;;;;;4983006;28;20054;-38
2023/05/27 02:06:19;;;;;;;20.58;5.75;;;13.50;49.20;;;;;;4982520;28;20058;-42
2023/05/27 02:08:46;;;;;;;18.40;5.00;;;13.40;49.30;;;;;;4980288;28;20050;-40
2023/05/27 02:11:13;;;;;;;15.65;5.30;;;13.40;49.40;;;;;;4979862;28;20081;-38
2023/05/27 02:13:42;;;;;;;12.48;4.38;;;13.40;49.50;;;;;;4982843;28;20046;-41
2023/05/27 02:16:12;;;;;;;12.38;4.57;;;13.30;49.50;;;;;;4982250;28;20054;-39
2023/05/27 02:18:40;;;;;;;15.10;5.20;;;13.30;49.50;;;;;;4982660;28;20053;-39
2023/05/27 02:21:07;;;;;;;13.48;4.30;;;13.30;49.60;;;;;;4981637;28;20054;-39
2023/05/27 02:23:36;;;;;;;12.23;4.35;;;13.30;49.70;;;;;;4978751;28;20058;-38
2023/05/27 02:26:03;;;;;;;11.00;4.45;;;13.20;49.70;;;;;;4981776;28;20077;-38
2023/05/27 02:28:30;;;;;;;9.93;3.90;;;13.20;49.70;;;;;;4982479;28;20050;-39
2023/05/27 02:31:00;;;;;;;14.23;4.28;;;13.20;49.80;;;;;;4979711;28;20061;-41
2023/05/27 02:33:28;;;;;;;8.55;3.63;;;13.20;50.00;;;;;;4982346;28;20058;-39
2023/05/27 02:35:55;;;;;;;8.35;3.55;;;13.20;50.00;;;;;;4977295;28;20053;-39
2023/05/27 02:38:22;;;;;;;12.18;4.13;;;13.10;50.00;;;;;;4977808;28;20054;-39
2023/05/27 02:40:49;;;;;;;14.10;4.88;;;13.10;50.10;;;;;;4982919;28;20046;-39
2023/05/27 02:43:17;;;;;;;10.75;4.78;;;13.10;50.20;;;;;;4979005;28;20519;-37
2023/05/27 02:45:44;;;;;;;10.00;3.92;;;13.10;50.20;;;;;;4981696;28;20054;-38
2023/05/27 02:48:14;;;;;;;8.82;3.72;;;13.10;50.30;;;;;;4980624;28;20066;-38
2023/05/27 02:50:42;;;;;;;15.07;4.28;;;13.00;50.30;;;;;;4983467;28;20064;-39
2023/05/27 02:53:12;;;;;;;11.25;4.00;;;13.00;50.30;;;;;;4977773;28;20088;-43
2023/05/27 02:55:40;;;;;;;15.27;5.60;;;13.00;50.40;;;;;;4982367;28;20500;-45
2023/05/27 02:58:07;;;;;;;13.98;4.78;;;13.00;50.50;;;;;;4981701;28;20057;-40
2023/05/27 03:00:35;;;;;;;12.10;3.80;;;12.90;50.40;;;;;;4981684;28;20057;-39
2023/05/27 03:03:04;;;;;;;16.17;4.72;;;12.90;50.40;;;;;;4980107;28;20051;-38
2023/05/27 03:05:32;;;;;;;14.07;4.65;;;12.90;50.60;;;;;;4981697;28;20065;-38
2023/05/27 03:08:00;;;;;;;13.25;4.18;;;12.90;50.70;;;;;;4980706;28;20414;-39
2023/05/27 03:10:27;;;;;;;10.00;4.05;;;12.90;50.70;;;;;;4980461;28;20047;-39
2023/05/27 03:12:54;;;;;;;9.57;3.92;;;12.80;50.70;;;;;;4982741;28;20077;-41
2023/05/27 03:15:22;;;;;;;14.02;4.88;;;12.80;50.80;;;;;;4981708;28;20058;-38
2023/05/27 03:17:49;;;;;;;15.85;4.63;;;12.80;50.80;;;;;;4981351;28;20054;-38
2023/05/27 03:20:18;;;;;;;11.13;4.70;;;12.80;50.80;;;;;;4980506;28;20058;-38
2023/05/27 03:22:47;;;;;;;15.55;4.88;;;12.80;50.90;;;;;;4992602;28;20049;-38
2023/05/27 03:25:14;;;;;;;17.08;4.57;;;12.70;50.90;;;;;;5000561;28;20065;-39
2023/05/27 03:27:41;;;;;;;12.60;4.93;;;12.70;50.90;;;;;;5001012;28;20516;-38
2023/05/27 03:30:10;;;;;;;8.02;4.03;;;12.70;51.00;;;;;;4999779;28;20058;-45
2023/05/27 03:32:38;;;;;;;14.88;4.57;;;12.70;51.00;;;;;;5000012;28;20050;-39
2023/05/27 03:35:06;;;;;;;12.68;4.55;;;12.70;51.00;;;;;;5001261;28;20050;-41
2023/05/27 03:37:33;;;;;;;11.18;4.60;;;12.70;51.00;;;;;;4998673;28;20050;-43
2023/05/27 03:40:02;;;;;;;11.25;4.43;;;12.70;51.10;;;;;;4999752;28;20049;-45
2023/05/27 03:42:30;;;;;;;12.30;4.22;;;12.60;51.10;;;;;;4997255;28;20060;-39
2023/05/27 03:44:57;;;;;;;13.25;5.50;;;12.60;51.10;;;;;;5000339;28;20065;-40
2023/05/27 03:47:24;;;;;;;21.60;5.40;;;12.60;51.30;;;;;;4993349;28;20053;-41
2023/05/27 03:49:51;;;;;;;25.17;5.32;;;12.60;51.30;;;;;;4996871;28;20057;-39
2023/05/27 03:52:19;;;;;;;16.65;5.10;;;12.60;51.50;;;;;;4992407;28;20068;-41
2023/05/27 03:54:46;;;;;;;9.05;4.45;;;12.60;51.50;;;;;;4999722;28;20054;-38
2023/05/27 03:57:15;;;;;;;9.52;4.05;;;12.60;51.40;;;;;;4997154;28;20058;-39
2023/05/27 03:59:43;;;;;;;10.10;4.53;;;12.60;51.40;;;;;;4998489;28;20053;-38
2023/05/27 04:02:10;;;;;;;12.00;4.90;;;12.60;51.50;;;;;;4996169;28;20058;-38
2023/05/27 04:04:37;;;;;;;9.05;4.38;;;12.60;51.50;;;;;;4998988;28;20421;-42
2023/05/27 04:07:05;;;;;;;16.55;5.70;;;12.50;51.50;;;;;;4997819;28;20053;-39
2023/05/27 04:09:32;;;;;;;9.85;4.05;;;12.50;51.60;;;;;;4999677;28;20057;-43
2023/05/27 04:12:00;;;;;;;12.02;4.85;;;12.50;51.60;;;;;;4999646;28;20536;-41
2023/05/27 04:14:29;;;;;;;11.90;4.78;;;12.50;51.70;;;;;;4994625;28;20056;-40
2023/05/27 04:16:56;;;;;;;10.18;4.18;;;12.50;51.70;;;;;;4995511;28;20058;-39
2023/05/27 04:19:23;;;;;;;15.38;5.53;;;12.50;51.70;;;;;;4995451;28;20050;-38
2023/05/27 04:21:51;;;;;;;16.85;6.00;;;12.50;51.80;;;;;;4994532;28;20054;-38
2023/05/27 04:24:18;;;;;;;11.88;5.05;;;12.50;51.90;;;;;;4999345;28;20065;-44
2023/05/27 04:26:46;;;;;;;11.68;4.97;;;12.50;51.90;;;;;;4997349;28;20490;-40
2023/05/27 04:29:15;;;;;;;12.43;4.88;;;12.50;52.00;;;;;;4994910;28;20050;-38
2023/05/27 04:31:44;;;;;;;18.88;6.18;;;12.50;52.00;;;;;;5000106;28;20050;-38
2023/05/27 04:34:11;;;;;;;13.40;4.80;;;12.50;52.00;;;;;;4993697;28;20074;-40
2023/05/27 04:36:39;;;;;;;13.27;4.90;;;12.50;52.10;;;;;;4996007;28;20076;-38
2023/05/27 04:39:07;;;;;;;20.10;5.20;;;12.50;52.20;;;;;;4992942;28;20054;-38
2023/05/27 04:41:35;;;;;;;18.30;5.18;;;12.60;52.30;;;;;;4993412;28;20046;-38
2023/05/27 04:44:06;;;;;;;10.65;4.50;;;12.60;52.30;;;;;;4998406;28;20049;-40
2023/05/27 04:46:33;;;;;;;9.85;4.53;;;12.60;52.30;;;;;;4990945;28;20061;-39
2023/05/27 04:49:02;;;;;;;16.02;4.55;;;12.60;52.30;;;;;;4999543;28;20417;-41
2023/05/27 04:51:29;;;;;;;10.43;4.20;;;12.60;52.40;;;;;;4993499;28;20054;-44
2023/05/27 04:53:56;;;;;;;8.52;4.15;;;12.60;52.40;;;;;;4998785;28;20049;-43
2023/05/27 04:56:23;;;;;;;14.73;5.15;;;12.60;52.40;;;;;;4993012;28;20050;-42
2023/05/27 04:58:51;;;;;;;18.52;5.80;;;12.60;52.60;;;;;;4997609;28;20053;-40
2023/05/27 05:01:20;;;;;;;15.60;5.43;;;12.70;52.70;;;;;;5001162;28;20494;-40
2023/05/27 05:03:52;;;;;;;14.32;4.78;;;12.70;52.60;;;;;;5000808;28;20529;-40
2023/05/27 05:06:23;;;;;;;12.40;4.57;;;12.70;52.50;;;;;;5002481;28;20061;-40
2023/05/27 05:08:52;;;;;;;11.40;4.15;;;12.70;52.60;;;;;;4999025;28;20053;-39
2023/05/27 05:11:19;;;;;;;17.73;4.82;;;12.70;52.60;;;;;;4995811;28;20433;-39
2023/05/27 05:13:46;;;;;;;15.60;5.03;;;12.70;52.60;;;;;;4997199;28;20065;-39
2023/05/27 05:16:14;;;;;;;14.57;4.50;;;12.80;52.70;;;;;;5000789;28;20076;-39
2023/05/27 05:18:41;;;;;;;14.60;4.85;;;12.80;52.90;;;;;;4994055;28;20057;-38
2023/05/27 05:21:08;;;;;;;12.02;4.50;;;12.80;52.80;;;;;;4996063;28;20052;-38
2023/05/27 05:23:37;;;;;;;16.25;4.82;;;12.80;52.80;;;;;;4993896;28;20081;-39
2023/05/27 05:26:06;;;;;;;15.98;5.00;;;12.90;52.90;;;;;;4996310;28;20352;-38
2023/05/27 05:28:34;;;;;;;15.40;5.15;;;12.90;52.90;;;;;;4995464;28;20054;-38
2023/05/27 05:31:02;;;;;;;13.93;5.00;;;12.90;53.00;;;;;;5000818;28;20050;-43
2023/05/27 05:33:29;;;;;;;13.38;4.60;;;13.00;53.00;;;;;;4999379;28;20065;-38
2023/05/27 05:35:56;;;;;;;18.58;5.78;;;13.00;53.00;;;;;;5000241;28;20508;-39
2023/05/27 05:38:24;;;;;;;9.48;4.10;;;13.00;53.20;;;;;;4998009;28;20061;-42
2023/05/27 05:40:54;;;;;;;13.85;4.43;;;13.10;53.20;;;;;;5000903;28;20512;-40
2023/05/27 05:43:21;;;;;;;12.27;4.60;;;13.10;53.10;;;;;;5000852;28;20045;-39
2023/05/27 05:45:48;;;;;;;10.85;4.57;;;13.20;53.10;;;;;;4999445;28;20057;-39
2023/05/27 05:48:16;;;;;;;9.13;4.25;;;13.20;53.20;;;;;;4995291;28;20501;-39
2023/05/27 05:50:43;;;;;;;16.88;4.90;;;13.20;53.10;;;;;;5001317;28;20513;-37
2023/05/27 05:53:10;;;;;;;12.90;5.00;;;13.30;53.20;;;;;;5001632;28;20064;-38
2023/05/27 05:55:37;;;;;;;12.90;4.63;;;13.40;53.50;;;;;;5001153;28;20053;-39
2023/05/27 05:58:06;;;;;;;15.68;4.55;;;13.40;53.30;;;;;;4995702;28;20494;-40
2023/05/27 06:00:33;;;;;;;12.32;4.57;;;13.50;53.30;;;;;;5000313;28;20057;-39
2023/05/27 06:03:00;;;;;;;16.75;4.75;;;13.60;53.30;;;;;;4995534;28;20057;-39
2023/05/27 06:05:28;;;;;;;10.85;4.60;;;13.60;53.30;;;;;;5001749;28;20052;-39
2023/05/27 06:07:55;;;;;;;14.15;4.90;;;13.70;53.20;;;;;;4997372;28;20050;-39
2023/05/27 06:10:23;;;;;;;11.68;4.40;;;13.80;53.20;;;;;;5001519;28;20078;-40
2023/05/27 06:12:50;;;;;;;12.10;4.50;;;13.90;53.20;;;;;;4995917;28;20054;-40
2023/05/27 06:15:18;;;;;;;12.25;4.55;;;13.90;53.20;;;;;;4999757;28;20490;-39
2023/05/27 06:17:47;;;;;;;11.98;4.25;;;14.00;53.20;;;;;;5000066;28;20125;-39
2023/05/27 06:20:14;;;;;;;17.13;5.00;;;14.10;53.10;;;;;;4999527;28;20564;-39
2023/05/27 06:22:41;;;;;;;15.93;4.90;;;14.10;53.10;;;;;;5000970;28;20061;-40
2023/05/27 06:25:09;;;;;;;14.43;4.75;;;14.20;53.30;;;;;;4995759;28;20049;-41
2023/05/27 06:27:36;;;;;;;18.60;4.63;;;14.30;53.30;;;;;;5000102;28;20061;-40
2023/05/27 06:30:04;;;;;;;13.55;4.93;;;14.30;53.20;;;;;;4999615;28;20066;-42
2023/05/27 06:32:33;;;;;;;12.52;4.55;;;14.40;53.10;;;;;;4997131;28;20053;-39
2023/05/27 06:35:00;;;;;;;13.65;5.00;;;14.50;53.10;;;;;;4999767;28;20061;-40
2023/05/27 06:37:27;;;;;;;13.75;4.55;;;14.60;53.00;;;;;;5001000;28;20056;-39
2023/05/27 06:39:55;;;;;;;11.80;4.50;;;14.60;52.90;;;;;;5000400;28;20054;-41
2023/05/27 06:42:22;;;;;;;17.33;5.55;;;14.70;53.00;;;;;;4999242;28;20046;-41
2023/05/27 06:44:49;;;;;;;19.58;6.22;;;14.80;52.90;;;;;;5001608;28;20058;-38
2023/05/27 06:47:17;;;;;;;15.50;5.13;;;14.90;52.70;;;;;;5000388;28;20062;-40
2023/05/27 06:49:46;;;;;;;12.50;4.75;;;15.00;52.50;;;;;;5000647;28;20524;-39
2023/05/27 06:52:13;;;;;;;19.60;5.45;;;15.00;52.20;;;;;;5000803;28;20054;-38
2023/05/27 06:54:40;;;;;;;20.58;5.63;;;15.10;52.00;;;;;;4998116;28;20065;-40
2023/05/27 06:57:08;;;;;;;19.45;6.22;;;15.10;52.00;;;;;;4994790;28;20050;-39
2023/05/27 06:59:35;;;;;;;15.05;5.20;;;15.10;52.00;;;;;;4998347;28;20050;-38
2023/05/27 07:02:02;;;;;;;20.13;5.53;;;15.20;51.90;;;;;;4997842;28;20062;-38
2023/05/27 07:07:02;;;;;;;19.55;6.18;;;15.30;51.70;;;;;;5018470;28;20045;-38
2023/05/27 07:09:29;;;;;;;21.80;5.93;;;15.30;51.70;;;;;;5023923;28;20064;-37
2023/05/27 07:11:57;;;;;;;12.13;4.40;;;15.30;51.40;;;;;;5023711;28;20049;-38
2023/05/27 07:14:24;;;;;;;18.98;4.97;;;15.30;51.50;;;;;;5024762;28;20064;-43
2023/05/27 07:16:52;;;;;;;20.77;5.03;;;15.40;51.60;;;;;;5023697;28;20057;-39
2023/05/27 07:19:19;;;;;;;21.27;5.13;;;15.50;51.80;;;;;;5022868;28;20057;-41
2023/05/27 07:21:46;;;;;;;14.55;4.65;;;15.50;52.00;;;;;;5022491;28;20054;-39
2023/05/27 07:24:15;;;;;;;14.00;5.10;;;15.60;52.10;;;;;;5022331;28;20065;-43
2023/05/27 07:26:42;;;;;;;13.73;4.43;;;15.60;52.10;;;;;;5022828;28;20064;-39
2023/05/27 07:29:10;;;;;;;15.68;4.15;;;15.70;52.00;;;;;;5024359;28;20068;-38
2023/05/27 07:31:37;;;;;;;18.63;4.80;;;15.80;52.30;;;;;;5023588;28;20050;-39
2023/05/27 07:34:05;;;;;;;19.00;5.63;;;15.90;52.40;;;;;;5025042;28;20057;-39
2023/05/27 07:36:32;;;;;;;18.20;5.43;;;15.90;52.10;;;;;;5021027;28;20053;-38
2023/05/27 07:38:59;;;;;;;18.35;4.93;;;16.00;51.90;;;;;;5023748;28;20050;-38
2023/05/27 07:41:29;;;;;;;19.83;4.65;;;16.10;51.40;;;;;;5022657;28;20060;-39
2023/05/27 07:43:56;;;;;;;14.05;4.15;;;16.10;51.30;;;;;;5023214;28;20060;-39
2023/05/27 07:46:24;;;;;;;18.42;5.28;;;16.20;51.50;;;;;;5023572;28;20061;-41
2023/05/27 07:48:51;;;;;;;16.08;4.70;;;16.30;51.60;;;;;;5023713;28;20060;-43
2023/05/27 07:51:18;;;;;;;17.52;5.18;;;16.40;51.50;;;;;;5023594;28;20493;-42
2023/05/27 07:53:47;;;;;;;13.98;4.40;;;16.50;51.60;;;;;;5021324;28;20197;-42
2023/05/27 07:56:15;;;;;;;12.50;3.50;;;16.50;51.70;;;;;;5023147;28;20417;-39
2023/05/27 07:58:43;;;;;;;12.45;3.75;;;16.70;51.60;;;;;;5023067;28;20056;-38
2023/05/27 08:01:11;;;;;;;9.88;3.47;;;16.70;51.50;;;;;;5022327;28;20678;-41
2023/05/27 08:03:38;;;;;;;12.52;3.88;;;16.80;51.60;;;;;;5024160;28;20054;-40
2023/05/27 08:06:05;;;;;;;12.57;4.18;;;16.90;51.50;;;;;;5017362;28;20045;-42
2023/05/27 08:08:32;;;;;;;15.80;4.50;;;17.00;51.10;;;;;;5019218;28;20049;-38
2023/05/27 08:11:00;;;;;;;17.65;4.57;;;17.00;49.90;;;;;;5018812;28;20053;-39
2023/05/27 08:13:27;;;;;;;14.75;4.28;;;17.10;49.90;;;;;;5019196;28;20057;-38
2023/05/27 08:15:56;;;;;;;8.70;3.30;;;17.20;50.30;;;;;;5012799;28;21552;-44
2023/05/27 08:18:23;;;;;;;13.02;4.20;;;17.30;50.50;;;;;;5015364;28;20045;-45
2023/05/27 08:20:51;;;;;;;17.77;4.45;;;17.40;51.00;;;;;;5017372;28;20048;-48
2023/05/27 08:23:19;;;;;;;17.70;4.32;;;17.50;50.30;;;;;;5012626;28;20738;-48
2023/05/27 08:25:46;;;;;;;14.38;4.47;;;17.60;50.10;;;;;;5020465;28;20512;-51
2023/05/27 08:28:13;;;;;;;12.07;3.72;;;17.70;50.20;;;;;;5016019;28;20057;-47
2023/05/27 08:30:41;;;;;;;11.57;3.70;;;17.80;50.20;;;;;;5016809;28;20505;-49
2023/05/27 08:33:10;;;;;;;11.48;3.97;;;17.90;49.70;;;;;;5015444;28;20512;-48
2023/05/27 08:35:37;;;;;;;16.10;3.80;;;17.90;49.40;;;;;;5021097;28;20050;-48
2023/05/27 08:38:04;;;;;;;10.90;3.78;;;18.00;49.40;;;;;;5018980;28;20057;-48
2023/05/27 08:40:31;;;;;;;11.90;3.53;;;18.10;49.30;;;;;;5022557;28;20057;-49
2023/05/27 08:42:59;;;;;;;12.82;3.47;;;18.20;49.20;;;;;;5018852;28;20397;-46
2023/05/27 08:45:26;;;;;;;16.33;4.38;;;18.20;49.40;;;;;;5022308;28;20485;-45
2023/05/27 08:47:55;;;;;;;8.85;3.45;;;18.30;49.40;;;;;;5019058;28;20060;-49
2023/05/27 08:50:23;;;;;;;16.67;5.00;;;18.40;49.30;;;;;;5022316;28;20057;-47
2023/05/27 08:52:53;;;;;;;15.65;4.15;;;18.50;49.30;;;;;;5021668;28;20470;-47
2023/05/27 08:55:21;;;;;;;14.90;3.95;;;18.50;48.80;;;;;;5024158;28;20072;-49
2023/05/27 08:57:52;;;;;;;11.77;3.95;;;18.60;48.50;;;;;;5022277;28;20054;-47
2023/05/27 09:00:19;;;;;;;13.60;4.10;;;18.70;48.40;;;;;;5023548;28;20411;-49
2023/05/27 09:02:46;;;;;;;11.00;3.55;;;18.70;48.20;;;;;;5019049;28;20061;-47
2023/05/27 09:05:15;;;;;;;19.38;4.18;;;18.80;48.10;;;;;;5024038;28;20068;-46
2023/05/27 09:07:45;;;;;;;13.02;3.78;;;18.90;48.10;;;;;;5020805;28;20068;-48
2023/05/27 09:10:12;;;;;;;15.05;3.67;;;18.90;47.80;;;;;;5022896;28;20049;-48
2023/05/27 09:12:43;;;;;;;11.50;3.78;;;19.00;47.50;;;;;;5022337;28;20046;-44
2023/05/27 09:15:11;;;;;;;16.55;3.65;;;19.00;47.40;;;;;;5020693;28;20060;-47
2023/05/27 09:17:41;;;;;;;10.73;3.35;;;19.10;47.40;;;;;;5023645;28;20054;-47
2023/05/27 09:20:10;;;;;;;13.07;3.47;;;19.10;47.10;;;;;;5023103;28;20504;-48
2023/05/27 09:22:39;;;;;;;15.70;3.72;;;19.20;46.90;;;;;;5020256;28;20503;-49
2023/05/27 09:25:09;;;;;;;14.00;3.75;;;19.20;46.70;;;;;;5021339;28;20050;-48
2023/05/27 09:27:36;;;;;;;10.52;4.07;;;19.30;46.60;;;;;;5023042;28;20057;-44
2023/05/27 09:30:10;;;;;;;10.57;3.33;;;19.30;46.30;;;;;;5018848;28;20511;-46
2023/05/27 09:32:37;;;;;;;17.40;3.92;;;19.40;46.20;;;;;;5019316;28;20053;-51
2023/05/27 09:35:08;;;;;;;9.55;3.60;;;19.40;46.30;;;;;;5022436;28;20501;-47
2023/05/27 09:37:35;;;;;;;12.95;3.65;;;19.40;46.20;;;;;;5020259;28;20053;-47
2023/05/27 09:40:09;;;;;;;9.57;3.17;;;19.50;46.30;;;;;;5021397;28;20405;-47
2023/05/27 09:42:41;;;;;;;9.02;3.13;;;19.60;45.80;;;;;;5021484;28;20072;-51
2023/05/27 09:45:12;;;;;;;14.38;3.83;;;19.60;45.90;;;;;;5019972;28;20485;-45
2023/05/27 09:47:41;;;;;;;8.75;3.60;;;19.70;45.60;;;;;;5017433;28;20057;-49
2023/05/27 09:50:11;;;;;;;11.60;3.30;;;19.70;45.30;;;;;;5021898;28;20522;-46
2023/05/27 09:52:40;;;;;;;19.33;4.55;;;19.80;45.70;;;;;;5019917;28;20049;-46
2023/05/27 09:55:11;;;;;;;8.15;3.05;;;19.80;44.80;;;;;;5020576;28;20057;-44
2023/05/27 09:57:38;;;;;;;14.25;3.42;;;19.90;44.80;;;;;;5020867;28;20061;-46
2023/05/27 10:00:11;;;;;;;15.30;3.45;;;20.00;44.80;;;;;;5016427;28;20068;-44
2023/05/27 10:02:40;;;;;;;12.57;3.80;;;20.00;44.90;;;;;;5214025;23;20049;-47
2023/05/27 10:05:09;;;;;;;10.85;3.38;;;20.10;44.70;;;;;;5025689;28;20077;-48
2023/05/27 10:07:38;;;;;;;11.68;3.38;;;20.20;44.50;;;;;;5025850;28;20049;-51
2023/05/27 10:10:09;;;;;;;13.65;4.07;;;20.20;44.30;;;;;;5025466;28;20064;-48
2023/05/27 10:12:38;;;;;;;15.27;4.63;;;20.30;44.40;;;;;;5024739;28;20050;-46
2023/05/27 10:15:06;;;;;;;14.98;3.92;;;20.30;43.90;;;;;;5023608;28;20071;-51
2023/05/27 10:17:48;;;;;;;10.95;3.38;;;20.40;43.80;;;;;;5025914;28;20053;-44
2023/05/27 10:20:25;;;;;;;11.43;3.28;;;20.40;43.10;;;;;;5024608;28;20053;-45
2023/05/27 10:22:52;;;;;;;14.80;3.67;;;20.50;42.60;;;;;;5024600;28;20041;-49
2023/05/27 10:25:21;;;;;;;11.43;3.75;;;20.50;42.80;;;;;;5024672;28;20480;-47
2023/05/27 10:27:49;;;;;;;12.00;3.22;;;20.50;42.70;;;;;;5025379;28;20053;-48
2023/05/27 10:30:17;;;;;;;12.77;3.75;;;20.50;42.60;;;;;;5023661;28;20054;-46
2023/05/27 10:32:49;;;;;;;13.32;3.70;;;20.60;41.50;;;;;;5024472;28;20053;-46
2023/05/27 10:35:17;;;;;;;11.38;3.40;;;20.60;42.00;;;;;;5025402;28;20061;-44
2023/05/27 10:37:44;;;;;;;9.93;3.30;;;20.70;42.30;;;;;;5024276;28;20064;-52
2023/05/27 10:40:12;;;;;;;9.85;2.88;;;20.70;42.40;;;;;;5024561;28;20405;-50
2023/05/27 10:42:41;;;;;;;9.25;3.03;;;20.70;42.20;;;;;;5025304;28;20053;-50
2023/05/27 10:45:13;;;;;;;16.42;3.92;;;20.80;42.20;;;;;;5023741;28;20060;-48
2023/05/27 10:47:46;;;;;;;11.57;3.22;;;20.80;40.90;;;;;;5025126;28;20057;-44
2023/05/27 10:50:14;;;;;;;11.88;3.78;;;20.90;41.70;;;;;;5024099;28;20084;-48
2023/05/27 10:52:42;;;;;;;18.95;4.20;;;20.90;42.00;;;;;;5023654;28;20060;-43
2023/05/27 10:55:10;;;;;;;12.38;2.97;;;20.90;41.80;;;;;;5025408;28;20063;-47
2023/05/27 10:57:37;;;;;;;12.93;3.40;;;21.00;41.80;;;;;;5024911;28;20411;-51
2023/05/27 11:00:08;;;;;;;15.00;4.30;;;21.00;41.60;;;;;;5024648;28;20045;-47
2023/05/27 11:02:38;;;;;;;13.75;4.07;;;21.00;41.00;;;;;;5020619;28;20088;-48
2023/05/27 11:05:10;;;;;;;9.27;3.08;;;21.10;40.20;;;;;;5020131;28;20455;-46
2023/05/27 11:07:39;;;;;;;12.23;3.22;;;21.10;40.80;;;;;;5016001;28;20057;-46
2023/05/27 11:10:08;;;;;;;10.73;3.60;;;21.30;41.30;;;;;;5018570;28;20045;-46
2023/05/27 11:12:36;;;;;;;11.93;3.40;;;21.20;41.00;;;;;;5013463;28;20730;-46
2023/05/27 11:15:04;;;;;;;10.02;3.67;;;21.30;40.50;;;;;;5017466;28;20408;-49
2023/05/27 11:17:33;;;;;;;12.40;3.90;;;21.30;40.70;;;;;;5019835;28;20053;-46
2023/05/27 11:20:03;;;;;;;9.38;3.60;;;21.40;40.20;;;;;;5021554;28;20056;-47
2023/05/27 11:22:31;;;;;;;9.77;3.15;;;21.50;40.80;;;;;;5018767;28;20053;-45
2023/05/27 11:24:59;;;;;;;9.00;3.40;;;21.50;40.40;;;;;;5018360;28;20054;-49
2023/05/27 11:27:35;;;;;;;9.55;3.50;;;21.60;40.20;;;;;;5019696;28;20058;-47
2023/05/27 11:30:09;;;;;;;13.40;3.63;;;21.60;40.20;;;;;;5016728;28;20060;-47
2023/05/27 11:32:38;;;;;;;9.27;3.10;;;21.70;39.80;;;;;;5018890;28;20060;-51
2023/05/27 11:35:13;;;;;;;8.27;3.03;;;21.70;39.10;;;;;;5017557;28;20539;-48
2023/05/27 11:37:40;;;;;;;11.00;4.00;;;21.80;39.30;;;;;;5017890;28;20505;-48
2023/05/27 11:40:11;;;;;;;13.52;3.78;;;21.80;38.00;;;;;;5018581;28;20053;-50
2023/05/27 11:42:44;;;;;;;13.65;4.38;;;21.80;37.90;;;;;;5013990;28;22459;-50
2023/05/27 11:45:16;;;;;;;7.53;3.25;;;21.90;36.70;;;;;;5018472;28;20064;-48
2023/05/27 11:47:46;;;;;;;9.77;3.42;;;21.90;37.30;;;;;;5018794;28;20049;-45
2023/05/27 11:50:15;;;;;;;7.28;2.72;;;22.00;38.10;;;;;;5018347;28;20064;-49
2023/05/27 11:52:53;;;;;;;7.10;3.25;;;22.10;38.50;;;;;;5017383;28;20057;-47
2023/05/27 11:55:20;;;;;;;11.80;2.88;;;22.10;38.40;;;;;;5018492;28;20528;-51
2023/05/27 11:57:49;;;;;;;8.30;3.00;;;22.20;38.40;;;;;;5018089;28;20049;-51
2023/05/27 12:00:17;;;;;;;6.93;2.60;;;22.20;38.60;;;;;;5014519;28;20053;-49
2023/05/27 12:02:46;;;;;;;12.60;3.60;;;22.20;38.40;;;;;;5018225;28;20054;-45
2023/05/27 12:05:13;;;;;;;9.85;3.55;;;22.30;37.90;;;;;;5017894;28;20375;-49
2023/05/27 12:07:40;;;;;;;7.32;2.55;;;22.30;37.90;;;;;;5018122;28;20065;-47
2023/05/27 12:10:09;;;;;;;8.18;3.30;;;22.30;37.80;;;;;;5018792;28;20513;-47
2023/05/27 12:12:38;;;;;;;10.73;3.15;;;22.40;36.90;;;;;;5019022;28;20488;-51
2023/05/27 12:15:07;;;;;;;9.25;3.58;;;22.40;36.90;;;;;;5017108;28;20416;-49
2023/05/27 12:17:34;;;;;;;10.45;3.63;;;22.50;37.50;;;;;;5018329;28;20416;-49
2023/05/27 12:20:05;;;;;;;7.45;2.83;;;22.50;37.80;;;;;;5020656;28;20054;-53
2023/05/27 12:22:33;;;;;;;11.10;2.97;;;22.50;37.50;;;;;;5015399;28;20056;-51
2023/05/27 12:25:00;;;;;;;9.13;3.30;;;22.60;37.10;;;;;;5018099;28;20061;-52
2023/05/27 12:27:28;;;;;;;8.27;3.00;;;22.60;36.80;;;;;;5016775;28;20060;-49
2023/05/27 12:29:55;;;;;;;6.45;3.15;;;22.60;36.60;;;;;;5020173;28;20054;-49
2023/05/27 12:32:22;;;;;;;10.07;3.40;;;22.70;36.40;;;;;;5017822;28;20049;-44
2023/05/27 12:34:49;;;;;;;11.10;3.65;;;22.70;35.30;;;;;;5019478;28;20417;-47
2023/05/27 12:37:18;;;;;;;9.52;3.35;;;22.70;34.90;;;;;;5016653;28;20062;-50
2023/05/27 12:39:45;;;;;;;8.25;3.00;;;22.70;35.40;;;;;;5018872;28;20303;-46
2023/05/27 12:42:12;;;;;;;10.25;3.03;;;22.80;36.20;;;;;;5016829;28;20527;-47
2023/05/27 12:44:39;;;;;;;8.55;3.28;;;22.80;36.40;;;;;;5019164;28;20064;-46
2023/05/27 12:47:07;;;;;;;6.90;3.03;;;22.90;36.40;;;;;;5013775;28;20517;-48